Time;durP1;ratioP1;P1;durP2;ratioP2;P2;SDS_P1;SDS_P2;PMS_P1;PMS_P2;Temp;Humidity;BMP_temperature;BMP_pressure;BME280_temperature;BME280_humidity;BME280_pressure;Samples;Min_cycle;Max_cycle;Signal;HPM_P1;HPM_P2
2021/08/24 00:00:35;;;;;;;2.47;1.35;;;17.40;73.00;;;;;;5070759;28;20032;-79
2021/08/24 00:03:01;;;;;;;2.45;1.58;;;17.40;73.00;;;;;;5054319;28;20036;-78
2021/08/24 00:05:35;;;;;;;1.50;1.33;;;17.50;73.20;;;;;;5054440;28;20017;-78
2021/08/24 00:08:02;;;;;;;1.92;1.40;;;17.50;73.20;;;;;;5055256;28;20013;-78
2021/08/24 00:10:31;;;;;;;2.15;1.40;;;17.50;73.40;;;;;;5057512;28;20036;-79
2021/08/24 00:12:57;;;;;;;1.60;1.20;;;17.30;73.80;;;;;;5076849;28;20024;-78
2021/08/24 00:15:24;;;;;;;1.90;1.33;;;17.30;74.10;;;;;;5069731;28;20037;-78
2021/08/24 00:17:49;;;;;;;2.25;1.40;;;17.30;73.80;;;;;;5057986;28;20028;-78
2021/08/24 00:20:15;;;;;;;1.52;1.27;;;17.40;73.70;;;;;;5057966;28;20056;-79
2021/08/24 00:22:42;;;;;;;2.33;1.30;;;17.40;73.80;;;;;;5057601;28;20461;-78
2021/08/24 00:25:12;;;;;;;1.95;1.60;;;17.30;73.50;;;;;;5057854;28;20044;-78
2021/08/24 00:27:38;;;;;;;1.73;1.35;;;17.40;73.50;;;;;;5061169;28;20076;-78
2021/08/24 00:30:05;;;;;;;1.73;1.38;;;17.30;73.30;;;;;;5076689;28;20048;-78
2021/08/24 00:32:34;;;;;;;2.45;1.40;;;17.30;73.50;;;;;;5076342;28;20036;-79
2021/08/24 00:35:00;;;;;;;2.88;1.38;;;17.30;73.50;;;;;;5076332;28;20781;-78
2021/08/24 00:37:26;;;;;;;1.63;1.20;;;17.30;74.00;;;;;;5075895;28;20083;-79
2021/08/24 00:39:52;;;;;;;1.85;1.38;;;17.20;74.00;;;;;;5073918;28;20543;-79
2021/08/24 00:42:20;;;;;;;2.70;1.55;;;17.20;74.00;;;;;;5057450;28;20389;-79
2021/08/24 00:44:48;;;;;;;2.00;1.30;;;17.20;74.10;;;;;;5057475;28;20036;-78
2021/08/24 00:47:15;;;;;;;2.60;1.42;;;17.20;73.90;;;;;;5057084;28;20052;-79
2021/08/24 00:49:44;;;;;;;1.50;1.30;;;17.10;74.50;;;;;;5057442;28;20100;-79
2021/08/24 00:52:24;;;;;;;2.22;1.30;;;17.10;74.60;;;;;;5055871;28;20037;-78
2021/08/24 00:55:10;;;;;;;1.80;1.40;;;17.00;74.80;;;;;;5055885;28;20033;-78
2021/08/24 00:57:35;;;;;;;2.17;1.38;;;17.10;74.50;;;;;;5056584;28;20047;-79
2021/08/24 01:00:01;;;;;;;1.67;1.35;;;17.10;74.40;;;;;;5057360;28;20024;-78
2021/08/24 01:02:27;;;;;;;1.70;1.42;;;17.10;74.50;;;;;;5056898;28;20032;-79
2021/08/24 01:04:54;;;;;;;2.10;1.17;;;17.00;74.80;;;;;;5057090;28;20033;-78
2021/08/24 01:07:19;;;;;;;1.90;1.45;;;17.00;74.80;;;;;;5057275;28;20021;-78
2021/08/24 01:10:06;;;;;;;2.15;1.50;;;17.00;74.70;;;;;;5071180;28;20116;-79
2021/08/24 01:12:55;;;;;;;2.17;1.60;;;17.00;74.50;;;;;;5055915;28;20151;-79
2021/08/24 01:15:30;;;;;;;1.50;1.20;;;17.00;74.70;;;;;;5057027;28;20079;-79
2021/08/24 01:18:12;;;;;;;2.10;1.60;;;17.00;74.70;;;;;;5075110;28;20028;-79
2021/08/24 01:21:07;;;;;;;1.73;1.42;;;16.90;74.60;;;;;;5076130;28;20027;-79
2021/08/24 01:24:10;;;;;;;1.70;1.60;;;16.90;74.40;;;;;;5035454;28;20491;-79
2021/08/24 01:27:02;;;;;;;1.75;1.52;;;16.80;74.30;;;;;;5055455;28;20049;-79
2021/08/24 01:30:02;;;;;;;1.52;1.42;;;16.70;74.60;;;;;;5048153;28;20041;-79
2021/08/24 01:32:47;;;;;;;1.92;1.50;;;16.80;74.60;;;;;;5056553;28;20032;-79
2021/08/24 01:35:23;;;;;;;2.38;1.58;;;16.70;74.80;;;;;;5056710;28;20053;-79
2021/08/24 01:38:03;;;;;;;2.08;1.48;;;16.80;74.70;;;;;;5056438;28;20036;-78
2021/08/24 01:40:58;;;;;;;1.95;1.70;;;16.70;74.90;;;;;;5061354;28;20086;-79
2021/08/24 01:43:33;;;;;;;1.92;1.48;;;16.70;74.90;;;;;;5069913;28;20102;-79
2021/08/24 01:46:37;;;;;;;1.98;1.40;;;16.80;74.60;;;;;;5070567;28;20021;-78
2021/08/24 01:49:05;;;;;;;2.15;1.52;;;16.80;74.90;;;;;;5052568;28;20033;-78
2021/08/24 01:51:38;;;;;;;2.47;1.67;;;16.70;74.80;;;;;;5056249;28;20091;-79
2021/08/24 01:54:25;;;;;;;2.97;1.90;;;16.70;75.00;;;;;;5065956;28;20585;-78
2021/08/24 01:56:52;;;;;;;1.83;1.70;;;16.70;74.90;;;;;;5075863;28;20107;-78
2021/08/24 01:59:45;;;;;;;2.40;1.80;;;16.60;75.30;;;;;;5070520;28;20120;-79
2021/08/24 02:02:19;;;;;;;2.17;1.77;;;16.60;75.40;;;;;;5055883;28;20110;-79
2021/08/24 02:04:50;;;;;;;1.88;1.67;;;16.60;75.30;;;;;;5056015;28;20031;-79
2021/08/24 02:07:18;;;;;;;3.22;1.85;;;16.60;75.40;;;;;;5054269;28;20550;-79
2021/08/24 02:09:47;;;;;;;1.60;1.42;;;16.60;75.40;;;;;;5074319;28;20086;-79
2021/08/24 02:12:17;;;;;;;1.90;1.60;;;16.60;74.90;;;;;;5074458;28;20033;-79
2021/08/24 02:14:48;;;;;;;2.00;1.80;;;16.60;75.40;;;;;;5075882;28;20029;-79
2021/08/24 02:17:17;;;;;;;1.60;1.35;;;16.50;75.30;;;;;;5073296;28;20085;-79
2021/08/24 02:20:24;;;;;;;;;;;;;;;;;;;;;
2021/08/24 02:22:56;;;;;;;2.88;1.80;;;16.40;75.80;;;;;;5075578;28;20036;-78
2021/08/24 02:25:28;;;;;;;2.00;1.67;;;16.30;76.60;;;;;;5075561;28;20104;-79
2021/08/24 02:28:00;;;;;;;2.40;1.63;;;16.30;76.30;;;;;;5063881;28;20124;-79
2021/08/24 02:30:28;;;;;;;1.90;1.50;;;16.30;76.10;;;;;;5055489;28;20017;-79
2021/08/24 02:32:54;;;;;;;2.33;1.95;;;16.30;75.90;;;;;;5055429;28;20538;-79
2021/08/24 02:35:26;;;;;;;2.28;1.65;;;16.30;75.90;;;;;;5070724;28;20027;-78
2021/08/24 02:37:54;;;;;;;1.77;1.67;;;16.40;75.60;;;;;;5070229;28;20033;-79
2021/08/24 02:40:50;;;;;;;2.45;1.67;;;16.40;75.70;;;;;;5059165;28;20028;-78
2021/08/24 02:43:50;;;;;;;2.08;1.60;;;16.40;75.50;;;;;;5075205;28;20099;-78
2021/08/24 02:46:20;;;;;;;2.33;1.92;;;16.40;75.40;;;;;;5071841;28;20044;-79
2021/08/24 02:49:08;;;;;;;3.33;1.67;;;16.40;75.50;;;;;;5055354;28;20028;-79
2021/08/24 02:51:34;;;;;;;2.75;2.05;;;16.40;75.30;;;;;;5055081;28;20028;-79
2021/08/24 02:54:06;;;;;;;1.70;1.60;;;16.30;75.20;;;;;;5055465;28;20104;-79
2021/08/24 02:56:32;;;;;;;2.33;1.60;;;16.30;75.00;;;;;;5055124;28;20136;-79
2021/08/24 02:58:57;;;;;;;2.28;1.95;;;16.30;75.40;;;;;;5069437;28;20044;-79
2021/08/24 03:01:23;;;;;;;2.08;1.90;;;16.20;75.70;;;;;;5055006;28;20387;-79
2021/08/24 03:03:48;;;;;;;3.53;2.38;;;16.20;75.60;;;;;;5055178;28;20029;-79
2021/08/24 03:06:14;;;;;;;2.80;1.98;;;16.30;75.50;;;;;;5054966;28;20100;-79
2021/08/24 03:08:41;;;;;;;2.30;2.00;;;16.20;75.80;;;;;;5055179;28;20108;-79
2021/08/24 03:11:07;;;;;;;2.00;1.67;;;16.00;76.20;;;;;;5054917;28;20392;-79
2021/08/24 03:13:43;;;;;;;2.13;1.85;;;16.10;76.40;;;;;;5054973;28;20037;-78
2021/08/24 03:16:36;;;;;;;2.25;1.98;;;16.10;76.10;;;;;;5054975;28;20116;-79
2021/08/24 03:19:06;;;;;;;2.22;1.90;;;16.20;76.20;;;;;;5047009;28;20070;-79
2021/08/24 03:21:35;;;;;;;2.03;1.87;;;16.20;76.30;;;;;;5055041;28;20067;-79
2021/08/24 03:24:03;;;;;;;2.10;1.88;;;16.20;76.00;;;;;;5054793;28;20057;-78
2021/08/24 03:26:33;;;;;;;2.65;1.83;;;16.20;75.90;;;;;;5054825;28;20047;-79
2021/08/24 03:29:21;;;;;;;2.67;2.05;;;16.20;76.00;;;;;;5054747;28;20579;-79
2021/08/24 03:31:51;;;;;;;2.67;2.08;;;16.20;76.10;;;;;;5054875;28;20052;-78
2021/08/24 03:34:34;;;;;;;2.42;2.22;;;16.20;76.10;;;;;;5053324;28;20071;-78
2021/08/24 03:36:59;;;;;;;2.22;1.95;;;16.20;75.80;;;;;;5054793;28;20067;-78
2021/08/24 03:39:26;;;;;;;2.83;1.80;;;16.30;75.80;;;;;;5054908;28;20493;-78
2021/08/24 03:41:52;;;;;;;2.20;1.85;;;16.20;75.70;;;;;;5071152;28;20024;-78
2021/08/24 03:44:17;;;;;;;2.30;2.05;;;16.20;75.80;;;;;;5069224;28;20547;-78
2021/08/24 03:46:43;;;;;;;3.25;2.20;;;16.20;75.90;;;;;;5058392;28;20052;-78
2021/08/24 03:49:09;;;;;;;2.53;2.10;;;16.20;76.00;;;;;;5058380;28;20025;-78
2021/08/24 03:51:39;;;;;;;2.53;2.15;;;16.20;76.00;;;;;;5060786;28;20076;-78
2021/08/24 03:54:04;;;;;;;;;;;16.20;76.00;;;;;;5066564;28;20031;-78
2021/08/24 03:56:30;;;;;;;2.78;2.08;;;16.20;76.00;;;;;;5058199;28;19912;-78
2021/08/24 03:58:56;;;;;;;3.00;1.75;;;16.20;75.90;;;;;;5058320;28;20195;-79
2021/08/24 04:01:21;;;;;;;2.55;2.30;;;16.10;76.10;;;;;;5067517;28;20028;-78
2021/08/24 04:03:47;;;;;;;2.88;2.05;;;16.00;76.30;;;;;;5078170;28;20031;-79
2021/08/24 04:06:13;;;;;;;3.17;2.20;;;15.90;76.10;;;;;;5061658;28;20036;-79
2021/08/24 04:08:41;;;;;;;3.85;2.10;;;15.90;76.10;;;;;;5058277;28;20151;-78
2021/08/24 04:11:08;;;;;;;2.30;2.10;;;15.90;76.00;;;;;;5058122;28;20035;-78
2021/08/24 04:13:34;;;;;;;2.55;2.10;;;15.90;76.10;;;;;;5058208;28;20784;-78
2021/08/24 04:16:05;;;;;;;2.72;1.90;;;15.90;76.00;;;;;;5071300;28;20032;-78
2021/08/24 04:18:30;;;;;;;3.45;2.22;;;15.80;76.20;;;;;;5078010;28;20029;-79
2021/08/24 04:20:56;;;;;;;2.53;2.10;;;15.80;76.10;;;;;;5077880;28;20115;-78
2021/08/24 04:23:23;;;;;;;2.20;1.90;;;15.80;75.80;;;;;;5077966;28;20075;-78
2021/08/24 04:25:49;;;;;;;2.20;1.98;;;15.60;76.60;;;;;;5061301;28;20021;-78
2021/08/24 04:28:15;;;;;;;2.40;2.15;;;15.70;76.30;;;;;;5057848;28;20051;-79
2021/08/24 04:30:41;;;;;;;2.60;2.13;;;15.70;76.60;;;;;;5056394;28;20112;-79
2021/08/24 04:33:07;;;;;;;2.55;1.98;;;15.70;77.10;;;;;;5057679;28;20495;-79
2021/08/24 04:35:33;;;;;;;2.45;2.25;;;15.80;77.00;;;;;;5057831;28;20475;-78
2021/08/24 04:37:58;;;;;;;1.95;1.77;;;15.80;77.00;;;;;;5058456;28;20088;-78
2021/08/24 04:40:27;;;;;;;2.40;1.90;;;15.80;77.00;;;;;;5077556;28;20101;-78
2021/08/24 04:42:55;;;;;;;2.15;1.95;;;15.90;76.50;;;;;;5077570;28;20383;-78
2021/08/24 04:45:21;;;;;;;2.72;2.05;;;15.90;76.70;;;;;;5075793;28;20646;-78
2021/08/24 04:47:47;;;;;;;2.63;2.00;;;16.00;76.90;;;;;;5072586;28;20223;-78
2021/08/24 04:50:12;;;;;;;2.70;2.00;;;16.00;76.90;;;;;;5057446;28;20017;-78
2021/08/24 04:52:38;;;;;;;2.25;2.03;;;15.90;76.90;;;;;;5057255;28;20128;-79
2021/08/24 04:55:04;;;;;;;2.50;2.20;;;15.90;76.90;;;;;;5057588;28;20892;-79
2021/08/24 04:57:30;;;;;;;3.17;2.13;;;15.90;76.90;;;;;;5077273;28;20064;-78
2021/08/24 04:59:55;;;;;;;3.78;2.33;;;15.90;77.00;;;;;;5076198;28;20032;-78
2021/08/24 05:02:21;;;;;;;2.30;2.10;;;15.90;77.10;;;;;;5065884;28;20029;-78
2021/08/24 05:04:47;;;;;;;2.08;1.88;;;15.90;77.10;;;;;;5057322;28;20238;-78
2021/08/24 05:07:12;;;;;;;2.45;2.25;;;15.90;77.50;;;;;;5055742;28;20032;-78
2021/08/24 05:09:38;;;;;;;2.60;2.40;;;15.80;77.10;;;;;;5056874;28;20117;-79
2021/08/24 05:12:04;;;;;;;2.58;2.10;;;15.80;77.10;;;;;;5055826;28;20032;-78
2021/08/24 05:14:30;;;;;;;2.83;2.42;;;15.80;77.10;;;;;;5057071;28;20025;-78
2021/08/24 05:17:15;;;;;;;2.75;2.53;;;15.80;77.40;;;;;;5056808;28;20063;-79
2021/08/24 05:19:41;;;;;;;2.13;1.92;;;15.80;77.50;;;;;;5056863;28;20048;-78
2021/08/24 05:22:07;;;;;;;2.60;2.40;;;15.80;77.50;;;;;;5057020;28;20037;-78
2021/08/24 05:24:36;;;;;;;2.45;2.22;;;15.80;77.60;;;;;;5056604;28;20021;-78
2021/08/24 05:27:03;;;;;;;2.53;2.33;;;15.80;77.80;;;;;;5056842;28;20088;-78
2021/08/24 05:29:30;;;;;;;3.45;2.20;;;15.80;77.80;;;;;;5056545;28;20025;-79
2021/08/24 05:31:55;;;;;;;2.97;2.65;;;15.80;77.60;;;;;;5056687;28;20032;-79
2021/08/24 05:34:21;;;;;;;2.42;2.22;;;15.80;77.40;;;;;;5053962;28;20780;-78
2021/08/24 05:36:47;;;;;;;2.47;2.22;;;15.80;77.20;;;;;;5074976;28;20021;-78
2021/08/24 05:39:12;;;;;;;5.60;2.45;;;15.80;77.20;;;;;;5071744;28;20048;-78
2021/08/24 05:41:39;;;;;;;3.25;2.50;;;15.80;77.20;;;;;;5076355;28;20509;-78
2021/08/24 05:44:06;;;;;;;2.67;2.30;;;15.80;77.00;;;;;;5076218;28;20383;-78
2021/08/24 05:46:32;;;;;;;2.88;2.17;;;15.80;77.00;;;;;;5073827;28;20071;-78
2021/08/24 05:48:58;;;;;;;2.70;2.25;;;15.80;76.90;;;;;;5056128;28;20539;-79
2021/08/24 05:51:24;;;;;;;2.50;2.15;;;15.90;77.20;;;;;;5056333;28;20099;-79
2021/08/24 05:53:50;;;;;;;3.97;2.05;;;15.90;76.90;;;;;;5076178;28;20057;-79
2021/08/24 05:56:20;;;;;;;3.10;2.35;;;15.90;76.90;;;;;;5058782;28;20059;-79
2021/08/24 05:58:47;;;;;;;2.67;2.47;;;15.90;76.90;;;;;;5056164;28;20032;-79
2021/08/24 06:01:22;;;;;;;2.20;2.00;;;15.90;77.10;;;;;;5056089;28;20036;-79
2021/08/24 06:03:48;;;;;;;2.10;1.90;;;15.90;77.30;;;;;;5055577;28;20029;-79
2021/08/24 06:06:22;;;;;;;3.95;2.50;;;15.90;77.50;;;;;;5055572;28;20067;-78
2021/08/24 06:08:48;;;;;;;2.53;2.33;;;16.00;77.10;;;;;;5058857;28;20386;-79
2021/08/24 06:11:19;;;;;;;2.50;2.30;;;16.00;76.80;;;;;;5075914;28;20095;-79
2021/08/24 06:13:45;;;;;;;2.45;2.25;;;16.20;76.50;;;;;;5071274;28;20072;-79
2021/08/24 06:16:12;;;;;;;2.58;2.38;;;16.30;76.50;;;;;;5055800;28;21122;-79
2021/08/24 06:18:38;;;;;;;2.80;2.47;;;16.40;76.40;;;;;;5061514;28;20028;-78
2021/08/24 06:21:03;;;;;;;3.25;2.47;;;16.50;76.80;;;;;;5075514;28;20025;-79
2021/08/24 06:23:29;;;;;;;2.75;2.13;;;16.60;76.20;;;;;;5063636;28;20515;-79
2021/08/24 06:25:55;;;;;;;2.88;2.22;;;16.70;76.20;;;;;;5055686;28;20025;-79
2021/08/24 06:28:20;;;;;;;2.45;2.25;;;16.80;76.00;;;;;;5055509;28;20113;-78
2021/08/24 06:30:46;;;;;;;2.63;2.15;;;16.80;75.70;;;;;;5055472;28;20113;-79
2021/08/24 06:33:13;;;;;;;2.80;2.60;;;16.90;75.70;;;;;;5055084;28;20035;-79
2021/08/24 06:35:39;;;;;;;2.80;2.60;;;17.00;75.80;;;;;;5055065;28;20033;-79
2021/08/24 06:38:05;;;;;;;2.92;2.47;;;17.10;75.70;;;;;;5055560;28;20036;-79
2021/08/24 06:40:30;;;;;;;2.90;2.70;;;17.20;75.30;;;;;;5060547;28;20048;-78
2021/08/24 06:42:56;;;;;;;3.10;2.53;;;17.20;75.70;;;;;;5071690;28;20505;-78
2021/08/24 06:45:25;;;;;;;3.33;3.03;;;17.30;75.70;;;;;;5075343;28;20036;-79
2021/08/24 06:47:51;;;;;;;3.97;2.90;;;17.30;75.70;;;;;;5073942;28;20067;-79
2021/08/24 06:50:18;;;;;;;3.30;3.00;;;17.40;76.00;;;;;;5075254;28;20017;-79
2021/08/24 06:52:44;;;;;;;3.17;2.88;;;17.30;76.30;;;;;;5075296;28;20121;-78
2021/08/24 06:55:12;;;;;;;2.88;2.53;;;17.40;75.70;;;;;;5074234;28;20020;-79
2021/08/24 06:57:38;;;;;;;3.40;2.92;;;17.50;76.00;;;;;;5055234;28;20031;-79
2021/08/24 07:00:07;;;;;;;2.80;2.60;;;17.50;75.90;;;;;;5055141;28;20025;-79
2021/08/24 07:02:32;;;;;;;2.97;2.78;;;17.60;76.10;;;;;;5054940;28;20033;-79
2021/08/24 07:04:58;;;;;;;3.28;2.72;;;17.60;75.70;;;;;;5055168;28;20383;-79
2021/08/24 07:07:24;;;;;;;3.35;3.05;;;17.60;76.00;;;;;;5054994;28;20021;-79
2021/08/24 07:09:51;;;;;;;3.20;3.00;;;17.60;76.10;;;;;;5055075;28;20028;-79
2021/08/24 07:12:17;;;;;;;2.88;2.67;;;17.70;75.90;;;;;;5054913;28;20079;-79
2021/08/24 07:14:43;;;;;;;3.38;2.95;;;17.70;76.40;;;;;;5055096;28;20025;-79
2021/08/24 07:17:08;;;;;;;3.00;2.80;;;17.80;76.10;;;;;;5054854;28;20029;-79
2021/08/24 07:19:34;;;;;;;3.25;2.95;;;17.90;75.80;;;;;;5059739;28;20025;-79
2021/08/24 07:22:02;;;;;;;3.33;3.03;;;17.90;76.20;;;;;;5078932;28;20107;-79
2021/08/24 07:24:27;;;;;;;4.60;3.65;;;17.90;75.80;;;;;;5064353;28;20419;-79
2021/08/24 07:26:53;;;;;;;3.45;3.10;;;18.00;75.70;;;;;;5057656;28;20028;-79
2021/08/24 07:29:19;;;;;;;3.45;3.15;;;18.10;75.70;;;;;;5058862;28;20036;-79
2021/08/24 07:31:45;;;;;;;3.42;3.13;;;18.20;75.70;;;;;;5057456;28;20086;-79
2021/08/24 07:34:11;;;;;;;3.38;3.00;;;18.30;75.40;;;;;;5058643;28;20040;-79
2021/08/24 07:36:37;;;;;;;4.82;3.75;;;18.30;75.50;;;;;;5058697;28;20029;-79
2021/08/24 07:39:04;;;;;;;3.47;3.17;;;18.30;75.30;;;;;;5077266;28;20029;-79
2021/08/24 07:41:29;;;;;;;3.60;3.30;;;18.30;75.60;;;;;;5078571;28;20063;-79
2021/08/24 07:43:55;;;;;;;3.70;3.40;;;18.40;75.30;;;;;;5078859;28;20036;-79
2021/08/24 07:46:21;;;;;;;3.55;3.25;;;18.30;75.30;;;;;;5073765;28;20037;-79
2021/08/24 07:48:46;;;;;;;3.50;3.20;;;18.40;75.20;;;;;;5058620;28;20029;-79
2021/08/24 07:51:12;;;;;;;3.67;3.33;;;18.40;75.10;;;;;;5058623;28;20017;-79
2021/08/24 07:53:38;;;;;;;3.40;3.10;;;18.40;75.20;;;;;;5061583;28;20092;-79
2021/08/24 07:56:06;;;;;;;3.53;3.22;;;18.40;75.40;;;;;;5078480;28;20092;-79
2021/08/24 07:58:32;;;;;;;3.45;3.05;;;18.50;75.20;;;;;;5078512;28;20016;-79
2021/08/24 08:00:58;;;;;;;3.28;2.97;;;18.70;74.70;;;;;;5071398;28;20036;-78
2021/08/24 08:03:24;;;;;;;3.88;3.58;;;18.70;74.70;;;;;;5058076;28;20025;-79
2021/08/24 08:05:50;;;;;;;3.53;3.22;;;18.80;74.50;;;;;;5058059;28;20436;-79
2021/08/24 08:08:16;;;;;;;3.42;3.00;;;18.90;74.40;;;;;;5073567;28;20021;-79
2021/08/24 08:10:42;;;;;;;3.30;2.90;;;19.00;73.90;;;;;;5058230;28;20045;-79
2021/08/24 08:13:07;;;;;;;3.58;3.28;;;19.20;73.70;;;;;;5058181;28;20447;-79
2021/08/24 08:15:33;;;;;;;3.45;3.17;;;19.20;72.80;;;;;;5057893;28;20427;-79
2021/08/24 08:18:01;;;;;;;3.55;3.25;;;19.30;72.50;;;;;;5057922;28;21300;-79
2021/08/24 08:20:27;;;;;;;2.92;2.65;;;19.70;71.80;;;;;;5058128;28;20575;-80
2021/08/24 08:22:52;;;;;;;3.30;3.00;;;19.90;70.90;;;;;;5057605;28;20068;-79
2021/08/24 08:25:18;;;;;;;3.35;3.05;;;20.10;70.30;;;;;;5057845;28;20483;-79
2021/08/24 08:27:44;;;;;;;2.85;2.65;;;20.20;69.70;;;;;;5057869;28;20127;-79
2021/08/24 08:30:11;;;;;;;3.25;2.95;;;20.30;69.70;;;;;;5071971;28;20067;-79
2021/08/24 08:32:38;;;;;;;4.18;2.95;;;20.40;69.20;;;;;;5057857;28;20025;-79
2021/08/24 08:35:06;;;;;;;2.90;2.70;;;21.10;67.90;;;;;;5057628;28;20086;-80
2021/08/24 08:37:31;;;;;;;2.88;2.53;;;21.70;66.80;;;;;;5057683;28;20028;-79
2021/08/24 08:39:57;;;;;;;2.60;2.40;;;22.60;62.60;;;;;;5058053;28;20056;-80
2021/08/24 08:42:48;;;;;;;2.40;2.20;;;22.50;62.80;;;;;;5077554;28;20317;-79
2021/08/24 08:45:17;;;;;;;2.60;2.40;;;22.10;62.90;;;;;;5056282;28;20100;-79
2021/08/24 08:48:13;;;;;;;2.78;2.47;;;22.20;62.90;;;;;;5057244;28;20052;-80
2021/08/24 08:50:49;;;;;;;2.67;2.47;;;22.90;60.60;;;;;;5056330;28;20040;-80
2021/08/24 08:53:29;;;;;;;2.72;2.53;;;23.20;60.50;;;;;;5055965;28;20052;-80
2021/08/24 08:56:20;;;;;;;2.47;2.28;;;23.60;58.80;;;;;;5057121;28;20029;-80
2021/08/24 08:58:53;;;;;;;2.58;2.38;;;24.40;56.40;;;;;;5057386;28;20036;-80
2021/08/24 09:01:30;;;;;;;2.92;2.30;;;24.90;55.20;;;;;;5072899;28;20028;-79
2021/08/24 09:04:23;;;;;;;2.40;2.20;;;24.70;55.20;;;;;;5057009;28;20021;-80
2021/08/24 09:06:53;;;;;;;2.40;2.20;;;24.00;56.30;;;;;;5056866;28;20066;-80
2021/08/24 09:09:20;;;;;;;2.78;2.35;;;24.00;57.00;;;;;;5056929;28;20021;-79
2021/08/24 09:11:49;;;;;;;2.33;2.13;;;25.30;54.30;;;;;;5056924;28;20025;-80
2021/08/24 09:14:39;;;;;;;2.42;2.10;;;26.60;51.10;;;;;;5056947;28;20511;-80
2021/08/24 09:17:25;;;;;;;2.20;2.00;;;26.80;48.60;;;;;;5056725;28;20571;-80
2021/08/24 09:20:06;;;;;;;2.35;2.15;;;26.90;48.80;;;;;;5056671;28;20395;-81
2021/08/24 09:22:32;;;;;;;2.13;1.92;;;27.80;47.10;;;;;;5057180;28;20068;-80
2021/08/24 09:24:57;;;;;;;2.53;2.05;;;28.60;45.20;;;;;;5056497;28;20017;-80
2021/08/24 09:27:50;;;;;;;2.05;1.85;;;29.00;43.00;;;;;;5056695;28;20111;-80
2021/08/24 09:30:17;;;;;;;1.90;1.80;;;29.60;42.90;;;;;;5056519;28;20021;-82
2021/08/24 09:32:42;;;;;;;2.25;2.08;;;29.90;42.20;;;;;;5056548;28;20064;-80
2021/08/24 09:35:26;;;;;;;1.88;1.75;;;30.30;40.00;;;;;;5056617;28;20025;-81
2021/08/24 09:37:53;;;;;;;1.80;1.70;;;30.40;39.80;;;;;;5060404;28;20063;-78
2021/08/24 09:40:45;;;;;;;1.70;1.50;;;30.80;39.30;;;;;;5061516;28;20023;-78
2021/08/24 09:43:33;;;;;;;1.65;1.40;;;31.10;37.40;;;;;;5076206;28;20047;-78
2021/08/24 09:46:00;;;;;;;1.67;1.25;;;31.30;39.20;;;;;;5076455;28;20059;-78
2021/08/24 09:48:28;;;;;;;2.13;1.50;;;31.90;38.90;;;;;;5075041;28;20140;-78
2021/08/24 09:50:54;;;;;;;2.10;1.48;;;32.30;38.50;;;;;;5056300;28;20021;-79
2021/08/24 09:53:32;;;;;;;1.63;1.30;;;32.60;37.80;;;;;;5055092;28;20032;-79
2021/08/24 09:56:01;;;;;;;1.52;1.27;;;32.60;35.80;;;;;;5054960;28;20068;-78
2021/08/24 09:58:37;;;;;;;1.60;1.50;;;31.50;37.60;;;;;;5055896;28;20557;-78
2021/08/24 10:01:06;;;;;;;1.30;1.20;;;32.00;38.20;;;;;;5056004;28;20025;-79
2021/08/24 10:03:36;;;;;;;1.50;1.40;;;32.30;37.10;;;;;;5059170;28;20028;-79
2021/08/24 10:06:24;;;;;;;1.90;1.52;;;32.60;37.40;;;;;;5076024;28;20038;-78
2021/08/24 10:08:55;;;;;;;1.42;1.13;;;32.60;36.80;;;;;;5068765;28;20105;-79
2021/08/24 10:11:26;;;;;;;1.50;1.20;;;32.30;37.50;;;;;;5055674;28;20124;-78
2021/08/24 10:13:52;;;;;;;1.70;1.20;;;32.20;37.00;;;;;;5055870;28;20027;-77
2021/08/24 10:16:18;;;;;;;1.40;1.20;;;32.10;38.40;;;;;;5055870;28;20503;-78
2021/08/24 10:18:49;;;;;;;1.45;1.35;;;31.80;38.90;;;;;;5065172;28;20036;-78
2021/08/24 10:21:33;;;;;;;1.35;1.25;;;31.70;39.50;;;;;;5075787;28;20035;-78
2021/08/24 10:24:01;;;;;;;1.45;1.27;;;31.30;39.40;;;;;;5075663;28;20057;-78
2021/08/24 10:26:33;;;;;;;1.60;1.50;;;31.00;40.00;;;;;;5072127;28;20031;-78
2021/08/24 10:29:06;;;;;;;2.03;1.30;;;30.60;40.50;;;;;;5055520;28;20026;-77
2021/08/24 10:31:34;;;;;;;1.80;1.50;;;29.80;41.90;;;;;;5068996;28;20044;-77
2021/08/24 10:34:26;;;;;;;1.50;1.40;;;29.20;43.40;;;;;;5075386;28;20036;-77
2021/08/24 10:36:53;;;;;;;1.90;1.75;;;28.80;44.10;;;;;;5043472;28;20037;-78
2021/08/24 10:39:28;;;;;;;1.70;1.40;;;28.40;44.50;;;;;;5055390;28;20075;-77
2021/08/24 10:42:21;;;;;;;1.70;1.50;;;28.30;45.30;;;;;;5071778;28;20084;-80
2021/08/24 10:45:19;;;;;;;1.30;1.20;;;28.20;45.10;;;;;;5056513;28;20123;-80
2021/08/24 10:47:52;;;;;;;1.67;1.20;;;28.00;46.20;;;;;;5041873;28;20037;-80
2021/08/24 10:50:36;;;;;;;1.92;1.73;;;27.90;46.90;;;;;;5055376;28;20025;-80
2021/08/24 10:53:36;;;;;;;2.20;1.70;;;27.80;46.80;;;;;;5054274;28;20029;-77
2021/08/24 10:56:21;;;;;;;1.75;1.27;;;27.60;44.30;;;;;;5055104;28;20029;-77
2021/08/24 10:59:14;;;;;;;1.90;1.55;;;27.70;47.00;;;;;;5063363;28;20033;-80
2021/08/24 11:01:54;;;;;;;1.75;1.40;;;27.40;46.20;;;;;;5075237;28;20032;-79
2021/08/24 11:04:57;;;;;;;2.13;1.50;;;27.50;45.80;;;;;;5075075;28;20021;-79
2021/08/24 11:07:36;;;;;;;1.30;0.95;;;27.30;45.10;;;;;;5056148;28;20029;-80
2021/08/24 11:10:21;;;;;;;1.63;1.40;;;27.60;45.70;;;;;;5055121;28;20021;-80
2021/08/24 11:13:08;;;;;;;1.52;1.40;;;27.50;46.10;;;;;;5054689;28;20029;-80
2021/08/24 11:15:53;;;;;;;1.92;1.20;;;27.40;46.30;;;;;;5055308;28;20119;-79
2021/08/24 11:18:32;;;;;;;1.65;1.20;;;27.20;47.70;;;;;;5054967;28;20037;-80
2021/08/24 11:21:10;;;;;;;1.42;1.20;;;27.30;45.90;;;;;;5054871;28;20025;-80
2021/08/24 11:23:45;;;;;;;1.73;1.10;;;27.20;45.80;;;;;;5054968;28;20396;-80
2021/08/24 11:26:32;;;;;;;1.40;1.00;;;27.10;45.30;;;;;;5054979;28;20506;-81
2021/08/24 11:29:26;;;;;;;1.60;1.10;;;26.80;45.70;;;;;;5054582;28;20029;-80
2021/08/24 11:32:19;;;;;;;1.20;0.90;;;26.70;45.90;;;;;;5050781;28;20094;-81
2021/08/24 11:34:58;;;;;;;1.10;1.00;;;26.90;45.60;;;;;;5054744;28;20029;-80
2021/08/24 11:37:37;;;;;;;1.65;1.00;;;26.70;47.00;;;;;;5054672;28;20028;-79
2021/08/24 11:40:06;;;;;;;1.02;0.90;;;26.90;47.20;;;;;;5056038;28;20021;-80
2021/08/24 11:42:58;;;;;;;1.95;0.90;;;27.10;45.30;;;;;;5068517;28;20502;-80
2021/08/24 11:45:51;;;;;;;1.20;1.10;;;27.30;46.60;;;;;;5055132;28;20025;-80
2021/08/24 11:48:33;;;;;;;1.30;1.02;;;27.30;44.20;;;;;;5071706;28;20056;-81
2021/08/24 11:51:05;;;;;;;1.30;1.10;;;27.20;46.00;;;;;;5074695;28;20016;-80
2021/08/24 11:53:37;;;;;;;1.55;1.10;;;27.10;45.10;;;;;;5073219;28;20081;-81
2021/08/24 11:56:06;;;;;;;1.83;1.00;;;27.00;45.70;;;;;;5058358;28;20392;-80
2021/08/24 11:58:48;;;;;;;1.63;1.02;;;26.80;45.70;;;;;;5054448;28;20025;-80
2021/08/24 12:01:28;;;;;;;1.00;0.90;;;26.80;46.00;;;;;;5054410;28;20025;-80
2021/08/24 12:03:57;;;;;;;1.00;0.73;;;26.90;45.90;;;;;;5055223;28;20054;-80
2021/08/24 12:06:42;;;;;;;1.58;0.90;;;27.10;45.90;;;;;;5056787;28;20025;-81
2021/08/24 12:09:18;;;;;;;1.50;0.90;;;27.20;44.70;;;;;;5073286;28;20029;-80
2021/08/24 12:11:49;;;;;;;1.20;0.80;;;27.40;44.20;;;;;;5058219;28;20024;-81
2021/08/24 12:14:43;;;;;;;1.27;0.82;;;27.30;44.20;;;;;;5057859;28;20025;-80
2021/08/24 12:17:15;;;;;;;0.77;0.50;;;27.00;43.60;;;;;;5058075;28;20082;-81
2021/08/24 12:19:57;;;;;;;1.20;0.75;;;26.60;43.60;;;;;;5058057;28;20029;-81
2021/08/24 12:22:37;;;;;;;1.48;0.63;;;26.90;45.10;;;;;;5057959;28;20102;-80
2021/08/24 12:25:33;;;;;;;1.23;0.75;;;27.10;43.80;;;;;;5067439;28;20024;-80
2021/08/24 12:28:01;;;;;;;1.08;0.77;;;27.50;43.80;;;;;;5076733;28;20490;-81
2021/08/24 12:30:55;;;;;;;0.98;0.57;;;27.70;42.70;;;;;;5077916;28;20028;-81
2021/08/24 12:33:34;;;;;;;1.10;0.73;;;27.50;42.50;;;;;;5073581;28;20021;-80
2021/08/24 12:36:22;;;;;;;0.80;0.60;;;27.20;43.80;;;;;;5058082;28;20128;-80
2021/08/24 12:38:52;;;;;;;1.20;0.60;;;26.90;43.70;;;;;;5057711;28;20033;-81
2021/08/24 12:41:42;;;;;;;0.80;0.50;;;26.90;44.40;;;;;;5068533;28;20037;-80
2021/08/24 12:44:14;;;;;;;0.80;0.60;;;27.00;43.80;;;;;;5060207;28;20068;-81
2021/08/24 12:46:39;;;;;;;1.85;0.60;;;27.10;43.30;;;;;;5077429;28;20079;-80
2021/08/24 12:49:17;;;;;;;1.65;0.80;;;27.00;43.00;;;;;;5077350;28;20021;-80
2021/08/24 12:51:53;;;;;;;0.73;0.50;;;27.00;43.90;;;;;;5058528;28;20471;-80
2021/08/24 12:54:23;;;;;;;0.75;0.40;;;27.30;43.50;;;;;;5057266;28;20032;-80
2021/08/24 12:57:13;;;;;;;1.45;0.57;;;27.60;42.00;;;;;;5073043;28;20036;-80
2021/08/24 12:59:45;;;;;;;0.77;0.47;;;27.60;40.90;;;;;;5057251;28;20612;-81
2021/08/24 13:02:23;;;;;;;0.63;0.40;;;27.90;41.60;;;;;;5057242;28;20025;-81
2021/08/24 13:04:52;;;;;;;0.85;0.50;;;27.70;42.10;;;;;;5070186;28;20127;-81
2021/08/24 13:07:32;;;;;;;0.65;0.40;;;27.30;42.70;;;;;;5077534;28;20021;-82
2021/08/24 13:10:10;;;;;;;0.75;0.40;;;27.20;42.90;;;;;;5077369;28;20028;-80
2021/08/24 13:12:40;;;;;;;0.77;0.40;;;27.30;42.20;;;;;;5060883;28;20537;-81
2021/08/24 13:15:29;;;;;;;0.80;0.50;;;27.10;42.70;;;;;;5056655;28;20108;-80